sensor_id;sensor_type;location;lat;lon;timestamp;temperature;humidity
23748;DHT22;12054;53.662;10.126;2023-12-20T00:00:02;7.10;99.90
23748;DHT22;12054;53.662;10.126;2023-12-20T00:02:28;7.10;99.90
23748;DHT22;12054;53.662;10.126;2023-12-20T00:04:53;7.10;99.90
23748;DHT22;12054;53.662;10.126;2023-12-20T00:07:19;7.10;99.90
23748;DHT22;12054;53.662;10.126;2023-12-20T00:09:44;7.10;99.90
23748;DHT22;12054;53.662;10.126;2023-12-20T00:12:10;7.10;99.90
23748;DHT22;12054;53.662;10.126;2023-12-20T00:14:36;7.10;99.90
23748;DHT22;12054;53.662;10.126;2023-12-20T00:17:01;7.10;99.90
23748;DHT22;12054;53.662;10.126;2023-12-20T00:19:27;7.00;99.90
23748;DHT22;12054;53.662;10.126;2023-12-20T00:21:52;7.00;99.90
23748;DHT22;12054;53.662;10.126;2023-12-20T00:24:18;7.00;99.90
23748;DHT22;12054;53.662;10.126;2023-12-20T00:26:43;7.00;99.90
23748;DHT22;12054;53.662;10.126;2023-12-20T00:29:09;6.90;99.90
23748;DHT22;12054;53.662;10.126;2023-12-20T00:31:34;6.90;99.90
23748;DHT22;12054;53.662;10.126;2023-12-20T00:33:59;6.80;99.90
23748;DHT22;12054;53.662;10.126;2023-12-20T00:36:25;6.80;99.90
23748;DHT22;12054;53.662;10.126;2023-12-20T00:38:51;6.80;99.90
23748;DHT22;12054;53.662;10.126;2023-12-20T00:41:17;6.80;99.90
23748;DHT22;12054;53.662;10.126;2023-12-20T00:43:42;6.70;99.90
23748;DHT22;12054;53.662;10.126;2023-12-20T00:46:08;6.70;99.90
23748;DHT22;12054;53.662;10.126;2023-12-20T00:48:33;6.70;99.90
23748;DHT22;12054;53.662;10.126;2023-12-20T00:50:59;6.70;99.90
23748;DHT22;12054;53.662;10.126;2023-12-20T00:53:24;6.60;99.90
23748;DHT22;12054;53.662;10.126;2023-12-20T00:55:50;6.60;99.90
23748;DHT22;12054;53.662;10.126;2023-12-20T00:58:15;6.60;99.90
23748;DHT22;12054;53.662;10.126;2023-12-20T01:00:41;6.60;99.90
23748;DHT22;12054;53.662;10.126;2023-12-20T01:03:08;6.60;99.90
23748;DHT22;12054;53.662;10.126;2023-12-20T01:05:33;6.60;99.90
23748;DHT22;12054;53.662;10.126;2023-12-20T01:07:59;6.60;99.90
23748;DHT22;12054;53.662;10.126;2023-12-20T01:10:25;6.60;99.90
23748;DHT22;12054;53.662;10.126;2023-12-20T01:12:53;6.50;99.90
23748;DHT22;12054;53.662;10.126;2023-12-20T01:15:19;6.50;99.90
23748;DHT22;12054;53.662;10.126;2023-12-20T01:17:44;6.50;99.90
23748;DHT22;12054;53.662;10.126;2023-12-20T01:20:10;6.50;99.90
23748;DHT22;12054;53.662;10.126;2023-12-20T01:22:35;6.50;99.90
23748;DHT22;12054;53.662;10.126;2023-12-20T01:25:01;6.50;99.90
23748;DHT22;12054;53.662;10.126;2023-12-20T01:27:28;6.50;99.90
23748;DHT22;12054;53.662;10.126;2023-12-20T01:29:53;6.50;99.90
23748;DHT22;12054;53.662;10.126;2023-12-20T01:32:19;6.40;99.90
23748;DHT22;12054;53.662;10.126;2023-12-20T01:34:45;6.40;99.90
23748;DHT22;12054;53.662;10.126;2023-12-20T01:37:10;6.40;99.90
23748;DHT22;12054;53.662;10.126;2023-12-20T01:39:36;6.40;99.90
23748;DHT22;12054;53.662;10.126;2023-12-20T01:42:01;6.40;99.90
23748;DHT22;12054;53.662;10.126;2023-12-20T01:44:27;6.40;99.90
23748;DHT22;12054;53.662;10.126;2023-12-20T01:46:53;6.40;99.90
23748;DHT22;12054;53.662;10.126;2023-12-20T01:49:19;6.30;99.90
23748;DHT22;12054;53.662;10.126;2023-12-20T01:51:45;6.30;99.90
23748;DHT22;12054;53.662;10.126;2023-12-20T01:54:11;6.30;99.90
23748;DHT22;12054;53.662;10.126;2023-12-20T01:56:38;6.30;99.90
23748;DHT22;12054;53.662;10.126;2023-12-20T01:59:04;6.30;99.90
23748;DHT22;12054;53.662;10.126;2023-12-20T02:01:30;6.20;99.90
23748;DHT22;12054;53.662;10.126;2023-12-20T02:03:56;6.20;99.90
23748;DHT22;12054;53.662;10.126;2023-12-20T02:06:23;6.20;99.90
23748;DHT22;12054;53.662;10.126;2023-12-20T02:08:50;6.30;99.90
23748;DHT22;12054;53.662;10.126;2023-12-20T02:11:16;6.20;99.90
23748;DHT22;12054;53.662;10.126;2023-12-20T02:13:41;6.20;99.90
23748;DHT22;12054;53.662;10.126;2023-12-20T02:16:07;6.20;99.90
23748;DHT22;12054;53.662;10.126;2023-12-20T02:18:33;6.20;99.90
23748;DHT22;12054;53.662;10.126;2023-12-20T02:20:59;6.20;99.90
23748;DHT22;12054;53.662;10.126;2023-12-20T02:23:24;6.20;99.90
23748;DHT22;12054;53.662;10.126;2023-12-20T02:25:50;6.20;99.90
23748;DHT22;12054;53.662;10.126;2023-12-20T02:28:16;6.20;99.90
23748;DHT22;12054;53.662;10.126;2023-12-20T02:30:41;6.20;99.90
23748;DHT22;12054;53.662;10.126;2023-12-20T02:33:12;6.20;99.90
23748;DHT22;12054;53.662;10.126;2023-12-20T02:35:39;6.20;99.90
23748;DHT22;12054;53.662;10.126;2023-12-20T02:38:04;6.20;99.90
23748;DHT22;12054;53.662;10.126;2023-12-20T02:40:30;6.20;99.90
23748;DHT22;12054;53.662;10.126;2023-12-20T02:42:55;6.20;99.90
23748;DHT22;12054;53.662;10.126;2023-12-20T02:45:21;6.20;99.90
23748;DHT22;12054;53.662;10.126;2023-12-20T02:47:46;6.20;99.90
23748;DHT22;12054;53.662;10.126;2023-12-20T02:50:12;6.10;99.90
23748;DHT22;12054;53.662;10.126;2023-12-20T02:52:37;6.20;99.90
23748;DHT22;12054;53.662;10.126;2023-12-20T02:55:03;6.10;99.90
23748;DHT22;12054;53.662;10.126;2023-12-20T02:57:29;6.20;99.90
23748;DHT22;12054;53.662;10.126;2023-12-20T02:59:54;6.10;99.90
23748;DHT22;12054;53.662;10.126;2023-12-20T03:02:19;6.10;99.90
23748;DHT22;12054;53.662;10.126;2023-12-20T03:04:45;6.20;99.90
23748;DHT22;12054;53.662;10.126;2023-12-20T03:07:10;6.20;99.90
23748;DHT22;12054;53.662;10.126;2023-12-20T03:09:37;6.20;99.90
23748;DHT22;12054;53.662;10.126;2023-12-20T03:12:03;6.20;99.90
23748;DHT22;12054;53.662;10.126;2023-12-20T03:14:28;6.10;99.90
23748;DHT22;12054;53.662;10.126;2023-12-20T03:16:54;6.20;99.90
23748;DHT22;12054;53.662;10.126;2023-12-20T03:19:20;6.10;99.90
23748;DHT22;12054;53.662;10.126;2023-12-20T03:21:45;6.10;99.90
23748;DHT22;12054;53.662;10.126;2023-12-20T03:24:11;6.10;99.90
23748;DHT22;12054;53.662;10.126;2023-12-20T03:26:36;6.10;99.90
23748;DHT22;12054;53.662;10.126;2023-12-20T03:29:02;6.10;99.90
23748;DHT22;12054;53.662;10.126;2023-12-20T03:31:27;6.10;99.90
23748;DHT22;12054;53.662;10.126;2023-12-20T03:33:53;6.10;99.90
23748;DHT22;12054;53.662;10.126;2023-12-20T03:36:19;6.10;99.90
23748;DHT22;12054;53.662;10.126;2023-12-20T03:38:45;6.10;99.90
23748;DHT22;12054;53.662;10.126;2023-12-20T03:41:11;6.10;99.90
23748;DHT22;12054;53.662;10.126;2023-12-20T03:43:36;6.10;99.90
23748;DHT22;12054;53.662;10.126;2023-12-20T03:46:03;6.10;99.90
23748;DHT22;12054;53.662;10.126;2023-12-20T03:48:29;6.10;99.90
23748;DHT22;12054;53.662;10.126;2023-12-20T03:50:55;6.10;99.90
23748;DHT22;12054;53.662;10.126;2023-12-20T03:53:21;6.10;99.90
23748;DHT22;12054;53.662;10.126;2023-12-20T03:55:47;6.10;99.90
23748;DHT22;12054;53.662;10.126;2023-12-20T03:58:12;6.10;99.90
23748;DHT22;12054;53.662;10.126;2023-12-20T04:00:38;6.10;99.90
23748;DHT22;12054;53.662;10.126;2023-12-20T04:03:04;6.10;99.90
23748;DHT22;12054;53.662;10.126;2023-12-20T04:05:29;6.10;99.90
23748;DHT22;12054;53.662;10.126;2023-12-20T04:07:55;6.00;99.90
23748;DHT22;12054;53.662;10.126;2023-12-20T04:10:20;6.10;99.90
23748;DHT22;12054;53.662;10.126;2023-12-20T04:12:46;6.10;99.90
23748;DHT22;12054;53.662;10.126;2023-12-20T04:15:11;6.10;99.90
23748;DHT22;12054;53.662;10.126;2023-12-20T04:17:37;6.10;99.90
23748;DHT22;12054;53.662;10.126;2023-12-20T04:20:03;6.00;99.90
23748;DHT22;12054;53.662;10.126;2023-12-20T04:22:28;6.00;99.90
23748;DHT22;12054;53.662;10.126;2023-12-20T04:24:54;6.00;99.90
23748;DHT22;12054;53.662;10.126;2023-12-20T04:27:19;6.00;99.90
23748;DHT22;12054;53.662;10.126;2023-12-20T04:29:45;6.00;99.90
23748;DHT22;12054;53.662;10.126;2023-12-20T04:32:10;6.00;99.90
23748;DHT22;12054;53.662;10.126;2023-12-20T04:34:36;6.00;99.90
23748;DHT22;12054;53.662;10.126;2023-12-20T04:37:02;6.00;99.90
23748;DHT22;12054;53.662;10.126;2023-12-20T04:39:27;6.00;99.90
23748;DHT22;12054;53.662;10.126;2023-12-20T04:41:53;6.00;99.90
23748;DHT22;12054;53.662;10.126;2023-12-20T04:44:18;6.00;99.90
23748;DHT22;12054;53.662;10.126;2023-12-20T04:46:44;6.00;99.90
23748;DHT22;12054;53.662;10.126;2023-12-20T04:49:09;6.10;99.90
23748;DHT22;12054;53.662;10.126;2023-12-20T04:51:35;6.00;99.90
23748;DHT22;12054;53.662;10.126;2023-12-20T04:54:04;6.00;99.90
23748;DHT22;12054;53.662;10.126;2023-12-20T04:56:29;6.00;99.90
23748;DHT22;12054;53.662;10.126;2023-12-20T04:58:55;6.10;99.90
23748;DHT22;12054;53.662;10.126;2023-12-20T05:01:21;6.00;99.90
23748;DHT22;12054;53.662;10.126;2023-12-20T05:03:47;6.00;99.90
23748;DHT22;12054;53.662;10.126;2023-12-20T05:06:12;6.10;99.90
23748;DHT22;12054;53.662;10.126;2023-12-20T05:08:38;6.10;99.90
23748;DHT22;12054;53.662;10.126;2023-12-20T05:11:04;6.00;99.90
23748;DHT22;12054;53.662;10.126;2023-12-20T05:13:30;6.10;99.90
23748;DHT22;12054;53.662;10.126;2023-12-20T05:15:55;6.00;99.90
23748;DHT22;12054;53.662;10.126;2023-12-20T05:18:21;6.10;99.90
23748;DHT22;12054;53.662;10.126;2023-12-20T05:20:47;6.10;99.90
23748;DHT22;12054;53.662;10.126;2023-12-20T05:23:12;6.10;99.90
23748;DHT22;12054;53.662;10.126;2023-12-20T05:25:38;6.10;99.90
23748;DHT22;12054;53.662;10.126;2023-12-20T05:28:04;6.10;99.90
23748;DHT22;12054;53.662;10.126;2023-12-20T05:30:30;6.10;99.90
23748;DHT22;12054;53.662;10.126;2023-12-20T05:32:55;6.10;99.90
23748;DHT22;12054;53.662;10.126;2023-12-20T05:35:22;6.10;99.90
23748;DHT22;12054;53.662;10.126;2023-12-20T05:37:49;6.10;99.90
23748;DHT22;12054;53.662;10.126;2023-12-20T05:40:15;6.10;99.90
23748;DHT22;12054;53.662;10.126;2023-12-20T05:42:41;6.10;99.90
23748;DHT22;12054;53.662;10.126;2023-12-20T05:45:07;6.20;99.90
23748;DHT22;12054;53.662;10.126;2023-12-20T05:47:32;6.10;99.90
23748;DHT22;12054;53.662;10.126;2023-12-20T05:49:58;6.20;99.90
23748;DHT22;12054;53.662;10.126;2023-12-20T05:52:24;6.20;99.90
23748;DHT22;12054;53.662;10.126;2023-12-20T05:54:49;6.20;99.90
23748;DHT22;12054;53.662;10.126;2023-12-20T05:57:15;6.20;99.90
23748;DHT22;12054;53.662;10.126;2023-12-20T05:59:40;6.20;99.90
23748;DHT22;12054;53.662;10.126;2023-12-20T06:02:06;6.20;99.90
23748;DHT22;12054;53.662;10.126;2023-12-20T06:04:32;6.20;99.90
23748;DHT22;12054;53.662;10.126;2023-12-20T06:06:58;6.20;99.90
23748;DHT22;12054;53.662;10.126;2023-12-20T06:09:25;6.20;99.90
23748;DHT22;12054;53.662;10.126;2023-12-20T06:11:51;6.20;99.90
23748;DHT22;12054;53.662;10.126;2023-12-20T06:14:17;6.20;99.90
23748;DHT22;12054;53.662;10.126;2023-12-20T06:16:42;6.20;99.90
23748;DHT22;12054;53.662;10.126;2023-12-20T06:19:08;6.20;99.90
23748;DHT22;12054;53.662;10.126;2023-12-20T06:21:34;6.20;99.90
23748;DHT22;12054;53.662;10.126;2023-12-20T06:24:00;6.20;99.90
23748;DHT22;12054;53.662;10.126;2023-12-20T06:26:25;6.10;99.90
23748;DHT22;12054;53.662;10.126;2023-12-20T06:28:51;6.20;99.90
23748;DHT22;12054;53.662;10.126;2023-12-20T06:31:16;6.20;99.90
23748;DHT22;12054;53.662;10.126;2023-12-20T06:33:42;6.20;99.90
23748;DHT22;12054;53.662;10.126;2023-12-20T06:36:11;6.20;99.90
23748;DHT22;12054;53.662;10.126;2023-12-20T06:38:39;6.20;99.90
23748;DHT22;12054;53.662;10.126;2023-12-20T06:41:05;6.20;99.90
23748;DHT22;12054;53.662;10.126;2023-12-20T06:43:31;6.20;99.90
23748;DHT22;12054;53.662;10.126;2023-12-20T06:45:58;6.20;99.90
23748;DHT22;12054;53.662;10.126;2023-12-20T06:48:23;6.20;99.90
23748;DHT22;12054;53.662;10.126;2023-12-20T06:50:49;6.20;99.90
23748;DHT22;12054;53.662;10.126;2023-12-20T06:53:14;6.30;99.90
23748;DHT22;12054;53.662;10.126;2023-12-20T06:55:40;6.30;99.90
23748;DHT22;12054;53.662;10.126;2023-12-20T06:58:05;6.30;99.90
23748;DHT22;12054;53.662;10.126;2023-12-20T07:00:32;6.30;99.90
23748;DHT22;12054;53.662;10.126;2023-12-20T07:02:58;6.20;99.90
23748;DHT22;12054;53.662;10.126;2023-12-20T07:05:24;6.30;99.90
23748;DHT22;12054;53.662;10.126;2023-12-20T07:07:49;6.30;99.90
23748;DHT22;12054;53.662;10.126;2023-12-20T07:10:15;6.30;99.90
23748;DHT22;12054;53.662;10.126;2023-12-20T07:12:40;6.30;99.90
23748;DHT22;12054;53.662;10.126;2023-12-20T07:15:06;6.30;99.90
23748;DHT22;12054;53.662;10.126;2023-12-20T07:17:33;6.30;99.90
23748;DHT22;12054;53.662;10.126;2023-12-20T07:19:59;6.30;99.90
23748;DHT22;12054;53.662;10.126;2023-12-20T07:22:31;6.30;99.90
23748;DHT22;12054;53.662;10.126;2023-12-20T07:24:58;6.30;99.90
23748;DHT22;12054;53.662;10.126;2023-12-20T07:27:23;6.30;99.90
23748;DHT22;12054;53.662;10.126;2023-12-20T07:29:49;6.30;99.90
23748;DHT22;12054;53.662;10.126;2023-12-20T07:32:14;6.30;99.90
23748;DHT22;12054;53.662;10.126;2023-12-20T07:34:40;6.30;99.90
23748;DHT22;12054;53.662;10.126;2023-12-20T07:37:05;6.30;99.90
23748;DHT22;12054;53.662;10.126;2023-12-20T07:39:31;6.30;99.90
23748;DHT22;12054;53.662;10.126;2023-12-20T07:41:56;6.30;99.90
23748;DHT22;12054;53.662;10.126;2023-12-20T07:44:22;6.30;99.90
23748;DHT22;12054;53.662;10.126;2023-12-20T07:46:48;6.30;99.90
23748;DHT22;12054;53.662;10.126;2023-12-20T07:49:14;6.70;99.90
23748;DHT22;12054;53.662;10.126;2023-12-20T07:51:39;6.40;99.90
23748;DHT22;12054;53.662;10.126;2023-12-20T07:54:05;6.40;99.90
23748;DHT22;12054;53.662;10.126;2023-12-20T07:56:33;6.30;99.90
23748;DHT22;12054;53.662;10.126;2023-12-20T07:58:58;6.30;99.90
23748;DHT22;12054;53.662;10.126;2023-12-20T08:01:24;6.50;99.90
23748;DHT22;12054;53.662;10.126;2023-12-20T08:03:50;6.40;99.90
23748;DHT22;12054;53.662;10.126;2023-12-20T08:06:15;6.30;99.90
23748;DHT22;12054;53.662;10.126;2023-12-20T08:08:42;6.60;99.90
23748;DHT22;12054;53.662;10.126;2023-12-20T08:11:11;6.40;99.90
23748;DHT22;12054;53.662;10.126;2023-12-20T08:13:36;6.40;99.90
23748;DHT22;12054;53.662;10.126;2023-12-20T08:16:02;6.40;99.90
23748;DHT22;12054;53.662;10.126;2023-12-20T08:18:28;6.40;99.90
23748;DHT22;12054;53.662;10.126;2023-12-20T08:20:54;6.40;99.90
23748;DHT22;12054;53.662;10.126;2023-12-20T08:23:20;6.40;99.90
23748;DHT22;12054;53.662;10.126;2023-12-20T08:25:49;6.80;99.90
23748;DHT22;12054;53.662;10.126;2023-12-20T08:28:14;6.50;99.90
23748;DHT22;12054;53.662;10.126;2023-12-20T08:30:40;6.50;99.90
23748;DHT22;12054;53.662;10.126;2023-12-20T08:33:06;6.40;99.90
23748;DHT22;12054;53.662;10.126;2023-12-20T08:35:36;6.40;99.90
23748;DHT22;12054;53.662;10.126;2023-12-20T08:38:02;6.50;99.90
23748;DHT22;12054;53.662;10.126;2023-12-20T08:40:27;6.50;99.90
23748;DHT22;12054;53.662;10.126;2023-12-20T08:42:53;6.50;99.90
23748;DHT22;12054;53.662;10.126;2023-12-20T08:45:18;6.50;99.90
23748;DHT22;12054;53.662;10.126;2023-12-20T08:47:44;6.50;99.90
23748;DHT22;12054;53.662;10.126;2023-12-20T08:50:10;6.50;99.90
23748;DHT22;12054;53.662;10.126;2023-12-20T08:52:36;6.50;99.90
23748;DHT22;12054;53.662;10.126;2023-12-20T08:55:01;6.60;99.90
23748;DHT22;12054;53.662;10.126;2023-12-20T08:57:27;6.60;99.90
23748;DHT22;12054;53.662;10.126;2023-12-20T08:59:53;6.60;99.90
23748;DHT22;12054;53.662;10.126;2023-12-20T09:02:19;6.60;99.90
23748;DHT22;12054;53.662;10.126;2023-12-20T09:04:44;6.60;99.90
23748;DHT22;12054;53.662;10.126;2023-12-20T09:07:25;6.70;99.90
23748;DHT22;12054;53.662;10.126;2023-12-20T09:09:52;6.70;99.90
23748;DHT22;12054;53.662;10.126;2023-12-20T09:12:19;6.60;99.90
23748;DHT22;12054;53.662;10.126;2023-12-20T09:14:46;6.60;99.90
23748;DHT22;12054;53.662;10.126;2023-12-20T09:17:12;6.60;99.90
23748;DHT22;12054;53.662;10.126;2023-12-20T09:19:38;6.60;99.90
23748;DHT22;12054;53.662;10.126;2023-12-20T09:22:04;6.60;99.90
23748;DHT22;12054;53.662;10.126;2023-12-20T09:24:30;6.70;99.90
23748;DHT22;12054;53.662;10.126;2023-12-20T09:26:56;6.70;99.90
23748;DHT22;12054;53.662;10.126;2023-12-20T09:29:21;6.60;99.90
23748;DHT22;12054;53.662;10.126;2023-12-20T09:31:47;6.60;99.90
23748;DHT22;12054;53.662;10.126;2023-12-20T09:34:15;6.60;99.90
23748;DHT22;12054;53.662;10.126;2023-12-20T09:36:41;6.60;99.90
23748;DHT22;12054;53.662;10.126;2023-12-20T09:39:13;6.50;99.90
23748;DHT22;12054;53.662;10.126;2023-12-20T09:41:43;6.50;99.90
23748;DHT22;12054;53.662;10.126;2023-12-20T09:44:15;6.50;99.90
23748;DHT22;12054;53.662;10.126;2023-12-20T09:46:43;6.50;99.90
23748;DHT22;12054;53.662;10.126;2023-12-20T09:49:10;6.50;99.90
23748;DHT22;12054;53.662;10.126;2023-12-20T09:51:36;6.50;99.90
23748;DHT22;12054;53.662;10.126;2023-12-20T09:54:03;6.50;99.90
23748;DHT22;12054;53.662;10.126;2023-12-20T09:56:29;6.60;99.90
23748;DHT22;12054;53.662;10.126;2023-12-20T09:58:55;6.60;99.90
23748;DHT22;12054;53.662;10.126;2023-12-20T10:01:21;6.60;99.90
23748;DHT22;12054;53.662;10.126;2023-12-20T10:03:47;6.50;99.90
23748;DHT22;12054;53.662;10.126;2023-12-20T10:06:13;6.50;99.90
23748;DHT22;12054;53.662;10.126;2023-12-20T10:08:39;6.50;99.90
23748;DHT22;12054;53.662;10.126;2023-12-20T10:11:05;6.40;99.90
23748;DHT22;12054;53.662;10.126;2023-12-20T10:13:30;6.50;99.90
23748;DHT22;12054;53.662;10.126;2023-12-20T10:15:56;6.40;99.90
23748;DHT22;12054;53.662;10.126;2023-12-20T10:18:22;6.40;99.90
23748;DHT22;12054;53.662;10.126;2023-12-20T10:20:48;6.40;99.90
23748;DHT22;12054;53.662;10.126;2023-12-20T10:23:15;6.40;99.90
23748;DHT22;12054;53.662;10.126;2023-12-20T10:25:41;6.40;99.90
23748;DHT22;12054;53.662;10.126;2023-12-20T10:28:16;6.40;99.90
23748;DHT22;12054;53.662;10.126;2023-12-20T10:30:48;6.40;99.90
23748;DHT22;12054;53.662;10.126;2023-12-20T10:33:13;6.30;99.90
23748;DHT22;12054;53.662;10.126;2023-12-20T10:35:40;6.30;99.90
23748;DHT22;12054;53.662;10.126;2023-12-20T10:38:06;6.30;99.90
23748;DHT22;12054;53.662;10.126;2023-12-20T10:40:36;6.30;99.90
23748;DHT22;12054;53.662;10.126;2023-12-20T10:43:03;6.30;99.90
23748;DHT22;12054;53.662;10.126;2023-12-20T10:45:28;6.20;99.90
23748;DHT22;12054;53.662;10.126;2023-12-20T10:47:55;6.20;99.90
23748;DHT22;12054;53.662;10.126;2023-12-20T10:50:20;6.30;99.90
23748;DHT22;12054;53.662;10.126;2023-12-20T10:52:47;6.20;99.90
23748;DHT22;12054;53.662;10.126;2023-12-20T10:55:13;6.20;99.90
23748;DHT22;12054;53.662;10.126;2023-12-20T10:57:39;6.20;99.90
23748;DHT22;12054;53.662;10.126;2023-12-20T11:00:08;6.20;99.90
23748;DHT22;12054;53.662;10.126;2023-12-20T11:02:38;6.20;99.90
23748;DHT22;12054;53.662;10.126;2023-12-20T11:05:25;6.20;99.90
23748;DHT22;12054;53.662;10.126;2023-12-20T11:07:58;6.20;99.90
23748;DHT22;12054;53.662;10.126;2023-12-20T11:13:32;6.20;99.90
23748;DHT22;12054;53.662;10.126;2023-12-20T11:15:59;6.20;99.90
23748;DHT22;12054;53.662;10.126;2023-12-20T11:18:32;6.20;99.90
23748;DHT22;12054;53.662;10.126;2023-12-20T11:21:06;6.20;99.90
23748;DHT22;12054;53.662;10.126;2023-12-20T11:23:32;6.20;99.90
23748;DHT22;12054;53.662;10.126;2023-12-20T11:26:02;6.20;99.90
23748;DHT22;12054;53.662;10.126;2023-12-20T11:28:28;6.20;99.90
23748;DHT22;12054;53.662;10.126;2023-12-20T11:30:57;6.20;99.90
23748;DHT22;12054;53.662;10.126;2023-12-20T11:33:45;6.10;99.90
23748;DHT22;12054;53.662;10.126;2023-12-20T11:36:19;6.10;99.90
23748;DHT22;12054;53.662;10.126;2023-12-20T11:38:55;6.10;99.90
23748;DHT22;12054;53.662;10.126;2023-12-20T11:41:25;6.10;99.90
23748;DHT22;12054;53.662;10.126;2023-12-20T11:43:54;6.10;99.90
23748;DHT22;12054;53.662;10.126;2023-12-20T11:46:20;6.10;99.90
23748;DHT22;12054;53.662;10.126;2023-12-20T11:48:46;6.20;99.90
23748;DHT22;12054;53.662;10.126;2023-12-20T11:51:13;6.30;99.90
23748;DHT22;12054;53.662;10.126;2023-12-20T11:53:40;6.30;99.90
23748;DHT22;12054;53.662;10.126;2023-12-20T11:56:06;6.40;99.90
23748;DHT22;12054;53.662;10.126;2023-12-20T11:58:33;6.40;99.90
23748;DHT22;12054;53.662;10.126;2023-12-20T12:00:59;6.40;99.90
23748;DHT22;12054;53.662;10.126;2023-12-20T12:03:25;6.50;99.90
23748;DHT22;12054;53.662;10.126;2023-12-20T12:05:50;6.50;99.90
23748;DHT22;12054;53.662;10.126;2023-12-20T12:08:19;6.50;99.90
23748;DHT22;12054;53.662;10.126;2023-12-20T12:10:45;6.50;99.90
23748;DHT22;12054;53.662;10.126;2023-12-20T12:13:10;6.50;99.90
23748;DHT22;12054;53.662;10.126;2023-12-20T12:15:37;6.50;99.90
23748;DHT22;12054;53.662;10.126;2023-12-20T12:18:03;6.50;99.90
23748;DHT22;12054;53.662;10.126;2023-12-20T12:20:28;6.60;99.90
23748;DHT22;12054;53.662;10.126;2023-12-20T12:22:59;6.60;99.90
23748;DHT22;12054;53.662;10.126;2023-12-20T12:25:25;6.60;99.90
23748;DHT22;12054;53.662;10.126;2023-12-20T12:27:51;6.70;99.90
23748;DHT22;12054;53.662;10.126;2023-12-20T12:30:17;6.80;99.90
23748;DHT22;12054;53.662;10.126;2023-12-20T12:32:44;6.70;99.90
23748;DHT22;12054;53.662;10.126;2023-12-20T12:35:10;6.80;99.90
23748;DHT22;12054;53.662;10.126;2023-12-20T12:37:38;6.70;99.90
23748;DHT22;12054;53.662;10.126;2023-12-20T12:40:06;6.80;99.90
23748;DHT22;12054;53.662;10.126;2023-12-20T12:42:32;6.80;99.90
23748;DHT22;12054;53.662;10.126;2023-12-20T12:44:58;6.80;99.90
23748;DHT22;12054;53.662;10.126;2023-12-20T12:47:23;6.80;99.90
23748;DHT22;12054;53.662;10.126;2023-12-20T12:49:51;6.80;99.90
23748;DHT22;12054;53.662;10.126;2023-12-20T12:52:16;6.80;99.90
23748;DHT22;12054;53.662;10.126;2023-12-20T12:54:42;6.80;99.90
23748;DHT22;12054;53.662;10.126;2023-12-20T12:57:08;6.80;99.90
23748;DHT22;12054;53.662;10.126;2023-12-20T12:59:34;6.80;99.90
23748;DHT22;12054;53.662;10.126;2023-12-20T13:02:00;6.80;99.90
23748;DHT22;12054;53.662;10.126;2023-12-20T13:04:25;6.80;99.90
23748;DHT22;12054;53.662;10.126;2023-12-20T13:06:51;6.80;99.90
23748;DHT22;12054;53.662;10.126;2023-12-20T13:09:16;6.80;99.90
23748;DHT22;12054;53.662;10.126;2023-12-20T13:11:42;6.80;99.90
23748;DHT22;12054;53.662;10.126;2023-12-20T13:14:07;6.80;99.90
23748;DHT22;12054;53.662;10.126;2023-12-20T13:16:36;6.80;99.90
23748;DHT22;12054;53.662;10.126;2023-12-20T13:19:01;6.80;99.90
23748;DHT22;12054;53.662;10.126;2023-12-20T13:21:27;6.80;99.90
23748;DHT22;12054;53.662;10.126;2023-12-20T13:23:52;6.80;99.90
23748;DHT22;12054;53.662;10.126;2023-12-20T13:26:19;6.80;99.90
23748;DHT22;12054;53.662;10.126;2023-12-20T13:28:44;6.80;99.90
23748;DHT22;12054;53.662;10.126;2023-12-20T13:31:10;6.80;99.90
23748;DHT22;12054;53.662;10.126;2023-12-20T13:33:35;6.80;99.90
23748;DHT22;12054;53.662;10.126;2023-12-20T13:36:01;6.80;99.90
23748;DHT22;12054;53.662;10.126;2023-12-20T13:38:27;6.80;99.90
23748;DHT22;12054;53.662;10.126;2023-12-20T13:40:52;6.80;99.90
23748;DHT22;12054;53.662;10.126;2023-12-20T13:43:18;6.80;99.90
23748;DHT22;12054;53.662;10.126;2023-12-20T13:45:46;6.80;99.90
23748;DHT22;12054;53.662;10.126;2023-12-20T13:48:12;6.80;99.90
23748;DHT22;12054;53.662;10.126;2023-12-20T13:50:37;6.90;99.90
23748;DHT22;12054;53.662;10.126;2023-12-20T13:53:03;6.80;99.90
23748;DHT22;12054;53.662;10.126;2023-12-20T13:55:29;6.80;99.90
23748;DHT22;12054;53.662;10.126;2023-12-20T13:57:56;6.70;99.90
23748;DHT22;12054;53.662;10.126;2023-12-20T14:00:22;6.80;99.90
23748;DHT22;12054;53.662;10.126;2023-12-20T14:02:47;6.70;99.90
23748;DHT22;12054;53.662;10.126;2023-12-20T14:05:14;6.70;99.90
23748;DHT22;12054;53.662;10.126;2023-12-20T14:07:43;6.70;99.90
23748;DHT22;12054;53.662;10.126;2023-12-20T14:10:12;6.70;99.90
23748;DHT22;12054;53.662;10.126;2023-12-20T14:12:41;6.70;99.90
23748;DHT22;12054;53.662;10.126;2023-12-20T14:15:07;6.70;99.90
23748;DHT22;12054;53.662;10.126;2023-12-20T14:17:37;6.70;99.90
23748;DHT22;12054;53.662;10.126;2023-12-20T14:20:04;6.70;99.90
23748;DHT22;12054;53.662;10.126;2023-12-20T14:22:30;6.60;99.90
23748;DHT22;12054;53.662;10.126;2023-12-20T14:24:56;6.60;99.90
23748;DHT22;12054;53.662;10.126;2023-12-20T14:27:22;6.60;99.90
23748;DHT22;12054;53.662;10.126;2023-12-20T14:29:50;6.60;99.90
23748;DHT22;12054;53.662;10.126;2023-12-20T14:32:15;6.60;99.90
23748;DHT22;12054;53.662;10.126;2023-12-20T14:34:41;6.60;99.90
23748;DHT22;12054;53.662;10.126;2023-12-20T14:37:07;6.50;99.90
23748;DHT22;12054;53.662;10.126;2023-12-20T14:39:32;6.50;99.90
23748;DHT22;12054;53.662;10.126;2023-12-20T14:41:58;6.50;99.90
23748;DHT22;12054;53.662;10.126;2023-12-20T14:44:24;6.50;99.90
23748;DHT22;12054;53.662;10.126;2023-12-20T14:46:50;6.50;99.90
23748;DHT22;12054;53.662;10.126;2023-12-20T14:49:16;6.50;99.90
23748;DHT22;12054;53.662;10.126;2023-12-20T14:51:44;6.50;99.90
23748;DHT22;12054;53.662;10.126;2023-12-20T14:54:10;6.50;99.90
23748;DHT22;12054;53.662;10.126;2023-12-20T14:56:35;6.50;99.90
23748;DHT22;12054;53.662;10.126;2023-12-20T14:59:01;6.50;99.90
23748;DHT22;12054;53.662;10.126;2023-12-20T15:01:27;6.50;99.90
23748;DHT22;12054;53.662;10.126;2023-12-20T15:03:52;6.40;99.90
23748;DHT22;12054;53.662;10.126;2023-12-20T15:06:18;6.40;99.90
23748;DHT22;12054;53.662;10.126;2023-12-20T15:08:45;6.40;99.90
23748;DHT22;12054;53.662;10.126;2023-12-20T15:11:11;6.40;99.90
23748;DHT22;12054;53.662;10.126;2023-12-20T15:13:37;6.40;99.90
23748;DHT22;12054;53.662;10.126;2023-12-20T15:16:03;6.40;99.90
23748;DHT22;12054;53.662;10.126;2023-12-20T15:18:30;6.40;99.90
23748;DHT22;12054;53.662;10.126;2023-12-20T15:20:57;6.40;99.90
23748;DHT22;12054;53.662;10.126;2023-12-20T15:23:23;6.40;99.90
23748;DHT22;12054;53.662;10.126;2023-12-20T15:25:51;6.50;99.90